• Join FlightAware (Why Join?)
  • Login
  • US Flag 
04:34PM EST


 

Airport Tracker/Info


-or-


 

Live Flight TrackerFlight Track Log ✈ OPT429 ✈ 20-Jun-2014 ✈ KCGF - KMDW

Flight Track Log - Related Links

Times and Time Zones

All times are in EDT time to prevent confusion due to time zone crossing. See the OPT429 flight status page for this flight to view local times or setup timezone preferences in your user account.

Time Position Orientation Groundspeed Altitude Reporting Facility
EDT Latitude Longitude Course Direction KTS MPH feet Rate Location/Type
03:59PM 41.5769 -81.4694 358° North 140 161 2,000  Level Cleveland Center
04:00PM 41.6228 -81.4711 358° North 217 250 3,800 2,220 Climbing Cleveland Center
04:01PM 41.6719 -81.4811 351° North 237 273 5,700 2,900 Climbing Cleveland Center
04:01PM 41.6928 -81.4878 347° North 272 313 6,700 3,194 Climbing Cleveland Center
04:02PM 41.7067 -81.5489 287° West 267 307 9,000 3,148 Climbing Cleveland Center
04:02PM 41.7017 -81.5761 256° West 272 313 9,900 2,609 Climbing Cleveland Center
04:03PM 41.6772 -81.6617 249° West 266 306 12,000 1,135 Climbing Cleveland Center
04:04PM 41.6444 -81.7417 241° Southwest 304 350 12,000 763 Level Cleveland Center
04:05PM 41.6094 -81.8725 250° West 323 372 13,500 1,935 Climbing Cleveland Center
04:06PM 41.5994 -81.9897 264° West 322 371 16,000 2,323 Climbing Cleveland Center
04:07PM 41.5892 -82.1044 263° West 314 361 18,300 2,129 Climbing Cleveland Center
04:08PM 41.5797 -82.2156 264° West 303 349 20,400 1,935 Climbing Cleveland Center
04:09PM 41.5714 -82.3244 264° West 298 343 22,300 1,645 Climbing Cleveland Center
04:10PM 41.5606 -82.4442 263° West 282 325 23,800 1,355 Climbing Cleveland Center
04:11PM 41.5511 -82.5547 264° West 294 338 25,100 1,152 Climbing Cleveland Center
04:12PM 41.5408 -82.6731 263° West 315 362 26,200 1,008 Climbing Cleveland Center
04:13PM 41.5303 -82.7989 264° West 332 382 27,200 919 Climbing Cleveland Center
04:14PM 41.5183 -82.9286 263° West 345 397 28,100 919 Climbing Cleveland Center
04:15PM 41.5067 -83.0619 263° West 354 407 29,100 919 Climbing Cleveland Center
04:16PM 41.4928 -83.1997 262° West 363 418 30,000 435 Climbing Cleveland Center
04:17PM 41.4789 -83.3414 263° West 381 438 30,000  Level Cleveland Center
04:18PM 41.4661 -83.4881 263° West 392 451 30,000  Level Cleveland Center
04:19PM 41.4519 -83.6592 264° West 392 451 30,000  Level Cleveland Center
04:20PM 41.4583 -83.8047 273° West 391 450 30,000  Level Cleveland Center
04:21PM 41.4633 -83.9478 273° West 390 449 30,000  Level Cleveland Center
04:22PM 41.4686 -84.0903 273° West 388 447 30,000  Level Cleveland Center
04:23PM 41.4744 -84.2514 273° West 387 445 30,000  Level Cleveland Center
04:24PM 41.4803 -84.3953 273° West 387 445 30,000  Level Cleveland Center
04:25PM 41.4844 -84.5414 272° West 391 450 30,000  Level Cleveland Center
04:26PM 41.4900 -84.6875 273° West 393 452 30,000  Level Cleveland Center
04:28PM 41.4944 -84.8333 272° West 393 452 30,000  Level Cleveland Center
04:28PM 41.4978 -84.9486 272° West 394 453 30,000 -865 Level Chicago Center
04:29PM 41.5019 -85.0969 272° West 396 456 28,500 -1,584 Descending Chicago Center
04:30PM 41.5056 -85.2444 272° West 396 456 26,700 -1,728 Descending Chicago Center
04:31PM 41.5072 -85.3928 271° West 396 456 24,900 -1,355 Descending Chicago Center
04:32PM 41.5106 -85.5403 272° West 382 440 23,900 -1,210 Descending Chicago Center
04:33PM 41.4997 -85.6808 264° West 376 433 22,400 -1,597 Descending Chicago Center
04:34PM 41.4844 -85.8522 263° West 385 443 20,600 -1,790 Descending Chicago Center
04:35PM 41.4947 -85.9933 276° West 383 441 18,700 -2,129 Descending Chicago Center
04:37PM 41.5036 -86.1267 275° West 362 417 16,200 -2,371 Descending Chicago Center
04:38PM 41.5128 -86.2519 276° West 342 394 13,800 -2,323 Descending Chicago Center
04:39PM 41.5214 -86.3711 276° West 327 376 11,400 -1,824 Descending Chicago Center
04:40PM 41.5217 -86.4858 270° West 311 358 10,000 -672 Descending Chicago Center
04:41PM 41.5269 -86.6178 273° West 298 343 10,000 -194 Level Chicago Center
04:42PM 41.5367 -86.7264 277° West 292 336 9,600 -677 Descending Chicago Center
04:43PM 41.5381 -86.8267 271° West 273 314 8,600 -1,016 Descending Chicago Center
04:44PM 41.5408 -86.9331 272° West 270 311 7,500 -1,016 Descending Chicago Center
04:45PM 41.5511 -87.0281 278° West 261 300 6,500 -555 Descending Chicago Center
04:47PM 41.5833 -87.1833 286° West 242 278 5,900 -807 Descending Chicago TRACON
04:48PM 41.6000 -87.2833 283° West 264 304 4,200 -1,000 Descending Chicago TRACON
04:49PM 41.6167 -87.3667 285° West 240 276 4,000 -105 Descending Chicago TRACON
04:50PM 41.6333 -87.4333 289° West 204 235 4,000  Level Chicago TRACON
04:51PM 41.6500 -87.5167 285° West 208 239 4,000 -143 Level Chicago TRACON
04:52PM 41.6667 -87.6000 285° West 205 236 3,700 -632 Descending Chicago TRACON
04:53PM 41.7175 -87.6581 320° Northwest 165 190 2,400 -892 Descending Chicago Center
04:54PM 41.7506 -87.7050 313° West 163 188 1,500 -774 Descending Chicago Center
04:55PM 41.7739 -87.7378 314° West 124 143 800 -387 Descending Chicago Center
04:56PM 41.7947 -87.7675 313° West 123 142 700 -97 Descending Chicago Center